Time;durP1;ratioP1;P1;durP2;ratioP2;P2;SDS_P1;SDS_P2;PMS_P1;PMS_P2;Temp;Humidity;BMP_temperature;BMP_pressure;BME280_temperature;BME280_humidity;BME280_pressure;Samples;Min_cycle;Max_cycle;Signal;HPM_P1;HPM_P2
2021/06/11 00:00:39;;;;;;;15.82;11.43;;;17.40;33.30;;;;;;5033214;28;20076;-66
2021/06/11 00:03:27;;;;;;;13.63;11.05;;;17.40;32.50;;;;;;5043859;28;20052;-66
2021/06/11 00:06:15;;;;;;;13.18;10.65;;;17.30;34.40;;;;;;5049420;28;20487;-67
2021/06/11 00:09:06;;;;;;;14.50;10.90;;;17.10;35.00;;;;;;5045498;28;20048;-66
2021/06/11 00:11:55;;;;;;;14.98;11.38;;;17.10;34.80;;;;;;5049027;28;20190;-66
2021/06/11 00:14:45;;;;;;;14.73;11.55;;;17.10;34.80;;;;;;5044962;28;20060;-66
2021/06/11 00:17:34;;;;;;;12.70;11.07;;;17.00;34.90;;;;;;5029008;28;20137;-66
2021/06/11 00:20:22;;;;;;;13.30;11.32;;;16.90;35.70;;;;;;5044722;28;20142;-66
2021/06/11 00:23:10;;;;;;;12.70;11.35;;;16.90;37.70;;;;;;5032065;28;20456;-66
2021/06/11 00:26:00;;;;;;;12.85;11.35;;;16.80;37.90;;;;;;5045431;28;20053;-66
2021/06/11 00:28:51;;;;;;;14.30;12.05;;;16.80;39.50;;;;;;5042877;28;20075;-66
2021/06/11 00:31:40;;;;;;;13.98;11.52;;;16.80;39.50;;;;;;5048627;28;20077;-65
2021/06/11 00:34:28;;;;;;;13.93;11.77;;;16.70;40.50;;;;;;5030510;28;20049;-66
2021/06/11 00:37:16;;;;;;;12.80;11.45;;;16.70;40.20;;;;;;5034922;28;20056;-65
2021/06/11 00:40:07;;;;;;;13.57;11.65;;;16.70;38.90;;;;;;5046516;28;20044;-66
2021/06/11 00:42:56;;;;;;;13.27;11.88;;;16.70;40.50;;;;;;5046017;28;20048;-64
2021/06/11 00:45:45;;;;;;;16.73;11.98;;;16.80;40.90;;;;;;5043836;28;20132;-66
2021/06/11 00:48:33;;;;;;;15.35;11.93;;;16.80;40.20;;;;;;5040919;28;20128;-65
2021/06/11 00:51:23;;;;;;;15.02;12.40;;;16.70;40.50;;;;;;5047968;28;20048;-65
2021/06/11 00:54:11;;;;;;;16.33;12.05;;;16.70;40.70;;;;;;5045412;28;20474;-66
2021/06/11 00:56:59;;;;;;;15.48;12.80;;;16.80;41.30;;;;;;5048693;28;20171;-65
2021/06/11 00:59:48;;;;;;;15.38;12.38;;;16.70;41.70;;;;;;5044232;28;20044;-67
2021/06/11 01:02:36;;;;;;;16.02;11.63;;;16.60;42.90;;;;;;5031612;28;20045;-66
2021/06/11 01:05:24;;;;;;;15.55;11.80;;;16.70;43.00;;;;;;5047024;28;20047;-66
2021/06/11 01:08:14;;;;;;;13.15;11.57;;;16.70;43.00;;;;;;5037393;28;20408;-65
2021/06/11 01:11:02;;;;;;;15.95;12.95;;;16.70;42.90;;;;;;5049492;28;20049;-66
2021/06/11 01:13:51;;;;;;;13.30;11.95;;;16.70;42.90;;;;;;5042847;28;20132;-66
2021/06/11 01:16:41;;;;;;;16.42;12.23;;;16.60;42.90;;;;;;5045184;28;20060;-66
2021/06/11 01:19:32;;;;;;;14.43;12.32;;;16.50;42.80;;;;;;5041593;28;20542;-66
2021/06/11 01:22:32;;;;;;;15.00;12.45;;;16.50;43.50;;;;;;5045369;28;20040;-66
2021/06/11 01:25:31;;;;;;;15.10;12.68;;;16.40;44.60;;;;;;5047730;28;20134;-66
2021/06/11 01:28:22;;;;;;;16.13;13.30;;;16.50;44.70;;;;;;5029563;28;20161;-66
2021/06/11 01:31:11;;;;;;;17.92;13.10;;;16.40;45.00;;;;;;5035859;28;20480;-65
2021/06/11 01:34:02;;;;;;;17.95;13.88;;;16.40;45.70;;;;;;5044558;28;20547;-67
2021/06/11 01:36:53;;;;;;;16.33;13.48;;;16.40;43.20;;;;;;5046538;28;20582;-65
2021/06/11 01:39:43;;;;;;;16.30;13.57;;;16.30;46.00;;;;;;5042329;28;20059;-65
2021/06/11 01:42:34;;;;;;;20.48;14.45;;;16.20;45.80;;;;;;5045470;28;20045;-65
2021/06/11 01:45:24;;;;;;;16.15;13.82;;;16.10;47.50;;;;;;5046800;28;20041;-65
2021/06/11 01:48:15;;;;;;;17.58;14.50;;;16.10;47.80;;;;;;5042627;28;20079;-65
2021/06/11 01:51:05;;;;;;;18.85;13.93;;;16.20;48.10;;;;;;5045228;28;20087;-65
2021/06/11 01:53:54;;;;;;;18.52;14.00;;;16.20;48.20;;;;;;5042602;28;20147;-65
2021/06/11 01:56:43;;;;;;;25.48;15.15;;;16.20;48.90;;;;;;5045161;28;20163;-66
2021/06/11 01:59:33;;;;;;;18.27;14.90;;;16.20;48.40;;;;;;5042441;28;20389;-66
2021/06/11 02:02:22;;;;;;;17.40;14.90;;;16.20;47.80;;;;;;5044642;28;20157;-65
2021/06/11 02:05:11;;;;;;;17.58;14.68;;;16.30;46.80;;;;;;5043894;28;20056;-65
2021/06/11 02:08:00;;;;;;;16.05;14.07;;;16.10;46.40;;;;;;5026326;28;20434;-66
2021/06/11 02:10:48;;;;;;;17.92;15.48;;;16.10;47.20;;;;;;5044840;28;20064;-65
2021/06/11 02:13:39;;;;;;;20.88;15.98;;;16.00;47.60;;;;;;5044256;28;20623;-66
2021/06/11 02:16:30;;;;;;;19.30;15.57;;;16.00;47.80;;;;;;5045465;28;20049;-66
2021/06/11 02:19:21;;;;;;;18.48;14.55;;;15.90;48.60;;;;;;5041570;28;20056;-66
2021/06/11 02:22:09;;;;;;;17.67;14.70;;;16.00;48.70;;;;;;5043916;28;20073;-66
2021/06/11 02:24:57;;;;;;;22.42;15.88;;;16.00;49.20;;;;;;5045393;28;20577;-66
2021/06/11 02:27:46;;;;;;;17.98;14.90;;;16.00;49.90;;;;;;5042108;28;20630;-66
2021/06/11 02:30:34;;;;;;;18.75;15.00;;;16.00;49.50;;;;;;5044828;28;20053;-67
2021/06/11 02:33:22;;;;;;;17.98;14.90;;;16.00;48.70;;;;;;5041699;28;20044;-67
2021/06/11 02:36:11;;;;;;;17.45;13.20;;;16.00;49.30;;;;;;5042591;28;20076;-67
2021/06/11 02:39:00;;;;;;;21.23;14.98;;;15.90;49.70;;;;;;5041639;28;20131;-67
2021/06/11 02:41:49;;;;;;;18.23;15.10;;;15.80;50.50;;;;;;5044806;28;20133;-67
2021/06/11 02:44:43;;;;;;;17.67;15.20;;;15.80;51.20;;;;;;5045237;28;20512;-67
2021/06/11 02:47:38;;;;;;;18.02;15.52;;;15.80;51.40;;;;;;5043697;28;20091;-67
2021/06/11 02:50:32;;;;;;;17.85;15.10;;;15.80;51.50;;;;;;5045452;28;20697;-67
2021/06/11 02:53:26;;;;;;;19.55;16.15;;;15.80;51.50;;;;;;5043839;28;20045;-67
2021/06/11 02:56:19;;;;;;;18.77;15.68;;;15.80;51.80;;;;;;5047161;28;20463;-66
2021/06/11 02:59:12;;;;;;;21.70;16.02;;;15.80;53.70;;;;;;5045566;28;20091;-66
2021/06/11 03:02:04;;;;;;;24.20;17.40;;;15.80;53.20;;;;;;5048910;28;20068;-66
2021/06/11 03:04:55;;;;;;;20.98;16.83;;;15.70;52.50;;;;;;5029408;28;20053;-65
2021/06/11 03:07:46;;;;;;;20.38;17.30;;;15.70;52.40;;;;;;5044372;28;20131;-67
2021/06/11 03:10:37;;;;;;;21.27;16.50;;;15.60;53.40;;;;;;5032638;28;20134;-66
2021/06/11 03:13:27;;;;;;;21.92;17.30;;;15.70;54.50;;;;;;5047014;28;20041;-67
2021/06/11 03:16:15;;;;;;;22.20;18.23;;;15.70;53.20;;;;;;5045353;28;20052;-67
2021/06/11 03:19:07;;;;;;;22.67;17.00;;;15.80;52.00;;;;;;5046103;28;20037;-67
2021/06/11 03:22:00;;;;;;;20.27;16.63;;;15.80;50.60;;;;;;5048441;28;20041;-67
2021/06/11 03:24:52;;;;;;;21.42;17.67;;;15.80;50.60;;;;;;5048011;28;20049;-67
2021/06/11 03:27:45;;;;;;;22.95;16.00;;;15.80;51.20;;;;;;5043034;28;20492;-67
2021/06/11 03:30:34;;;;;;;18.00;15.40;;;15.80;50.60;;;;;;5049736;28;20059;-65
2021/06/11 03:33:28;;;;;;;22.77;16.50;;;16.00;50.70;;;;;;5044834;28;20080;-66
2021/06/11 03:36:21;;;;;;;18.95;16.00;;;15.90;48.90;;;;;;5047695;28;20190;-67
2021/06/11 03:39:15;;;;;;;18.58;15.18;;;15.80;50.50;;;;;;5028700;28;20056;-66
2021/06/11 03:42:05;;;;;;;17.80;14.43;;;15.90;50.60;;;;;;5032682;28;20120;-66
2021/06/11 03:44:57;;;;;;;18.85;15.75;;;16.10;48.20;;;;;;5047987;28;20535;-66
2021/06/11 03:47:46;;;;;;;16.33;14.55;;;16.30;46.60;;;;;;5043680;28;20452;-66
2021/06/11 03:50:35;;;;;;;16.05;13.93;;;16.60;42.90;;;;;;5047420;28;20186;-65
2021/06/11 03:53:25;;;;;;;16.08;14.15;;;16.60;39.70;;;;;;5044264;28;20527;-66
2021/06/11 03:56:17;;;;;;;16.63;12.55;;;16.80;36.40;;;;;;5034219;28;20116;-66
2021/06/11 03:59:09;;;;;;;15.02;12.70;;;16.80;34.50;;;;;;5044670;28;20138;-66
2021/06/11 04:01:59;;;;;;;14.43;12.45;;;16.90;37.00;;;;;;5047714;28;20052;-66
2021/06/11 04:04:47;;;;;;;15.60;13.80;;;16.80;34.90;;;;;;5046328;28;20057;-66
2021/06/11 04:07:43;;;;;;;15.82;13.57;;;17.10;34.80;;;;;;5033822;28;20616;-64
2021/06/11 04:10:35;;;;;;;15.95;13.32;;;17.30;29.80;;;;;;5048075;28;20116;-67
2021/06/11 04:13:28;;;;;;;16.13;12.52;;;17.30;28.90;;;;;;5046865;28;20757;-66
2021/06/11 04:16:20;;;;;;;17.38;12.82;;;17.40;25.30;;;;;;5032140;28;20048;-66
2021/06/11 04:19:13;;;;;;;14.25;12.27;;;17.90;25.20;;;;;;5043342;28;20130;-66
2021/06/11 04:22:02;;;;;;;14.32;11.55;;;18.60;19.00;;;;;;5047863;28;20429;-65
2021/06/11 04:24:50;;;;;;;13.48;11.88;;;18.50;17.30;;;;;;5045606;28;20057;-65
2021/06/11 04:27:40;;;;;;;13.95;11.40;;;19.00;14.30;;;;;;5042594;28;20072;-66
2021/06/11 04:30:28;;;;;;;13.82;10.90;;;19.30;11.40;;;;;;5048579;28;20563;-66
2021/06/11 04:33:20;;;;;;;12.88;10.68;;;19.50;10.50;;;;;;5045419;28;20755;-65
2021/06/11 04:36:10;;;;;;;14.73;10.77;;;19.70;8.00;;;;;;5038909;28;20187;-66
2021/06/11 04:38:59;;;;;;;11.13;9.65;;;19.20;7.40;;;;;;5042852;28;20140;-65
2021/06/11 04:41:48;;;;;;;11.25;10.05;;;19.20;8.40;;;;;;5047616;28;20073;-66
2021/06/11 04:44:36;;;;;;;11.60;10.02;;;20.00;7.10;;;;;;5045892;28;20563;-65
2021/06/11 04:47:24;;;;;;;11.65;9.63;;;19.50;5.80;;;;;;5046675;28;20049;-67
2021/06/11 04:50:12;;;;;;;10.65;9.15;;;19.00;7.60;;;;;;5047562;28;20041;-65
2021/06/11 04:53:01;;;;;;;12.45;9.75;;;19.60;8.00;;;;;;5045730;28;20122;-66
2021/06/11 04:55:49;;;;;;;11.35;10.10;;;19.40;6.70;;;;;;5044010;28;20587;-65
2021/06/11 04:58:38;;;;;;;14.23;9.85;;;19.20;8.20;;;;;;5042487;28;20048;-65
2021/06/11 05:01:26;;;;;;;13.93;10.23;;;19.30;6.70;;;;;;5046107;28;20527;-66
2021/06/11 05:04:14;;;;;;;11.88;10.23;;;19.60;3.40;;;;;;5042991;28;20099;-66
2021/06/11 05:07:02;;;;;;;12.10;9.48;;;19.70;3.30;;;;;;5046881;28;20195;-66
2021/06/11 05:09:51;;;;;;;12.68;9.80;;;20.20;2.90;;;;;;5043290;28;20075;-66
2021/06/11 05:12:39;;;;;;;12.65;10.15;;;20.80;1.00;;;;;;5044433;28;20049;-65
2021/06/11 05:15:27;;;;;;;11.82;9.50;;;19.90;1.00;;;;;;5043742;28;20045;-66
2021/06/11 05:18:15;;;;;;;12.68;10.00;;;20.70;1.00;;;;;;5038283;28;20555;-66
2021/06/11 05:21:03;;;;;;;13.13;10.60;;;21.00;1.00;;;;;;5046359;28;20056;-66
2021/06/11 05:23:51;;;;;;;12.45;11.15;;;20.70;1.00;;;;;;5027459;28;20041;-66
2021/06/11 05:26:40;;;;;;;13.15;11.15;;;20.50;1.00;;;;;;5043038;28;20130;-66
2021/06/11 05:29:28;;;;;;;11.80;10.60;;;20.70;1.00;;;;;;5040023;28;20051;-67
2021/06/11 05:32:16;;;;;;;12.55;10.55;;;20.80;1.00;;;;;;5046105;28;20049;-66
2021/06/11 05:35:05;;;;;;;14.35;10.63;;;21.40;1.00;;;;;;5044411;28;20045;-66
2021/06/11 05:37:56;;;;;;;13.23;10.43;;;20.70;1.00;;;;;;5043128;28;20554;-66
2021/06/11 05:40:44;;;;;;;14.50;11.40;;;20.90;1.00;;;;;;5046483;28;20128;-65
2021/06/11 05:43:34;;;;;;;15.43;10.50;;;20.70;1.00;;;;;;5044257;28;20145;-66
2021/06/11 05:46:22;;;;;;;11.70;10.45;;;20.50;1.00;;;;;;5044121;28;20190;-66
2021/06/11 05:49:10;;;;;;;15.23;10.35;;;20.60;1.00;;;;;;5036981;28;20244;-66
2021/06/11 05:51:58;;;;;;;16.15;10.38;;;21.30;1.00;;;;;;5045282;28;20056;-66
2021/06/11 05:54:46;;;;;;;11.20;9.88;;;22.10;1.00;;;;;;5043817;28;20051;-67
2021/06/11 05:57:34;;;;;;;14.35;10.48;;;21.00;1.00;;;;;;5040123;28;20056;-66
2021/06/11 06:00:23;;;;;;;12.40;9.75;;;21.20;1.00;;;;;;5045173;28;20061;-67
2021/06/11 06:03:11;;;;;;;11.43;9.63;;;20.80;1.00;;;;;;5044119;28;20312;-67
2021/06/11 06:05:59;;;;;;;13.35;10.52;;;20.90;1.00;;;;;;5043059;28;20045;-66
2021/06/11 06:08:47;;;;;;;13.70;10.15;;;20.10;1.00;;;;;;5042259;28;20127;-67
2021/06/11 06:11:35;;;;;;;12.70;10.10;;;20.00;2.50;;;;;;5045264;28;20113;-66
2021/06/11 06:14:23;;;;;;;14.05;10.50;;;19.80;3.20;;;;;;5044184;28;20505;-68
2021/06/11 06:17:12;;;;;;;12.65;11.02;;;19.70;2.80;;;;;;5044777;28;20045;-66
2021/06/11 06:20:00;;;;;;;13.13;10.50;;;19.90;1.20;;;;;;5028304;28;20060;-65
2021/06/11 06:22:59;;;;;;;16.33;10.70;;;20.00;1.30;;;;;;5045549;28;20033;-66
2021/06/11 06:25:47;;;;;;;12.68;11.00;;;20.60;1.80;;;;;;5044708;28;20130;-67
2021/06/11 06:28:35;;;;;;;12.43;10.85;;;20.40;1.00;;;;;;5041738;28;20061;-66
2021/06/11 06:31:23;;;;;;;15.57;10.50;;;20.30;1.40;;;;;;5044494;28;20145;-66
2021/06/11 06:34:12;;;;;;;12.23;10.93;;;20.70;1.00;;;;;;5044643;28;20484;-67
2021/06/11 06:37:00;;;;;;;12.40;10.02;;;20.90;1.00;;;;;;5045951;28;20059;-66
2021/06/11 06:39:52;;;;;;;13.10;10.25;;;21.60;1.00;;;;;;5041439;28;20484;-67
2021/06/11 06:42:41;;;;;;;16.00;10.57;;;21.90;1.00;;;;;;5044730;28;20651;-66
2021/06/11 06:45:29;;;;;;;11.93;10.50;;;21.80;1.00;;;;;;5028265;28;20040;-65
2021/06/11 06:48:17;;;;;;;11.68;10.10;;;21.90;1.00;;;;;;5039962;28;20412;-66
2021/06/11 06:51:07;;;;;;;11.13;9.95;;;21.40;1.00;;;;;;5043510;28;20045;-67
2021/06/11 06:53:56;;;;;;;15.38;10.55;;;21.40;1.00;;;;;;5043011;28;20954;-68
2021/06/11 06:56:44;;;;;;;13.07;10.50;;;21.20;1.00;;;;;;5043538;28;20174;-66
2021/06/11 06:59:34;;;;;;;11.50;10.25;;;21.20;1.00;;;;;;5040788;28;20049;-66
2021/06/11 07:02:23;;;;;;;12.40;10.43;;;21.00;1.00;;;;;;5028440;28;20148;-65
2021/06/11 07:05:14;;;;;;;11.50;9.30;;;21.60;1.00;;;;;;5042996;28;20040;-67
2021/06/11 07:08:04;;;;;;;12.20;9.88;;;22.00;1.00;;;;;;5040535;28;20406;-67
2021/06/11 07:10:52;;;;;;;13.15;10.02;;;21.80;1.00;;;;;;5027659;28;20053;-66
2021/06/11 07:13:40;;;;;;;10.65;9.43;;;21.40;1.00;;;;;;5042008;28;20060;-67
2021/06/11 07:16:28;;;;;;;13.20;9.85;;;21.60;1.00;;;;;;5044094;28;20052;-67
2021/06/11 07:19:16;;;;;;;10.65;9.55;;;21.80;1.00;;;;;;5037266;28;20149;-66
2021/06/11 07:22:07;;;;;;;11.25;10.05;;;21.40;1.00;;;;;;5027536;28;20037;-66
2021/06/11 07:24:56;;;;;;;14.88;10.02;;;21.80;1.00;;;;;;5044250;28;20089;-67
2021/06/11 07:27:44;;;;;;;12.20;10.07;;;21.70;1.00;;;;;;5039701;28;20054;-67
2021/06/11 07:30:32;;;;;;;10.02;8.65;;;21.80;1.00;;;;;;5043985;28;20077;-67
2021/06/11 07:33:20;;;;;;;12.90;10.27;;;22.60;1.00;;;;;;5041536;28;20499;-65
2021/06/11 07:36:08;;;;;;;13.73;9.73;;;22.20;1.00;;;;;;5045501;28;20438;-67
2021/06/11 07:38:56;;;;;;;10.25;9.15;;;22.30;1.00;;;;;;5041962;28;20076;-66
2021/06/11 07:41:46;;;;;;;13.88;9.80;;;22.40;1.00;;;;;;5047609;28;20166;-66
2021/06/11 07:44:34;;;;;;;10.30;8.50;;;22.90;1.00;;;;;;5044343;28;20053;-66
2021/06/11 07:47:22;;;;;;;14.63;9.27;;;23.10;1.00;;;;;;5045120;28;20197;-66
2021/06/11 07:50:11;;;;;;;12.95;9.18;;;23.30;1.00;;;;;;5046380;28;20052;-66
2021/06/11 07:52:59;;;;;;;10.13;9.10;;;23.60;1.00;;;;;;5046632;28;20091;-66
2021/06/11 07:55:47;;;;;;;10.82;8.88;;;23.30;1.00;;;;;;5048109;28;20059;-65
2021/06/11 07:58:37;;;;;;;9.95;8.95;;;23.60;1.00;;;;;;5043328;28;20434;-66
2021/06/11 08:01:26;;;;;;;22.05;9.50;;;24.00;1.00;;;;;;5048369;28;20136;-66
2021/06/11 08:04:14;;;;;;;10.60;9.55;;;23.40;1.00;;;;;;5029462;28;20067;-66
2021/06/11 08:07:03;;;;;;;11.00;9.30;;;22.60;1.00;;;;;;5047737;28;20045;-66
2021/06/11 08:09:50;;;;;;;10.90;9.23;;;23.30;1.00;;;;;;5029261;28;20396;-67
2021/06/11 08:12:38;;;;;;;10.35;9.38;;;23.30;1.00;;;;;;5033148;28;20060;-66
2021/06/11 08:15:28;;;;;;;11.85;9.77;;;23.10;1.00;;;;;;5017966;28;20423;-66
2021/06/11 08:18:16;;;;;;;12.75;8.27;;;23.30;1.00;;;;;;5042738;28;20041;-66
2021/06/11 08:21:06;;;;;;;9.30;8.38;;;23.50;1.00;;;;;;5033480;28;20464;-65
2021/06/11 08:23:54;;;;;;;9.70;8.70;;;23.80;1.00;;;;;;5031658;28;20526;-66
2021/06/11 08:26:42;;;;;;;9.55;8.65;;;23.50;1.00;;;;;;5025429;28;20057;-66
2021/06/11 08:29:30;;;;;;;26.23;21.42;;;24.00;1.00;;;;;;5043084;28;20052;-66
2021/06/11 08:32:20;;;;;;;10.70;9.10;;;24.40;1.00;;;;;;5048533;28;20045;-66
2021/06/11 08:35:09;;;;;;;9.85;8.68;;;24.40;1.00;;;;;;5032688;28;20519;-67
2021/06/11 08:37:57;;;;;;;9.48;8.57;;;24.20;1.00;;;;;;5028049;28;20474;-67
2021/06/11 08:40:46;;;;;;;9.63;8.65;;;24.10;1.00;;;;;;5046113;28;20280;-66
2021/06/11 08:43:34;;;;;;;8.90;7.90;;;23.70;1.00;;;;;;5016240;28;20128;-66
2021/06/11 08:46:23;;;;;;;9.30;8.38;;;23.90;1.00;;;;;;5030437;28;20057;-67
2021/06/11 08:49:12;;;;;;;9.65;8.40;;;23.80;1.00;;;;;;5027146;28;20060;-66
2021/06/11 08:52:00;;;;;;;9.88;8.85;;;24.20;1.00;;;;;;5047163;28;20156;-66
2021/06/11 08:54:49;;;;;;;11.18;9.40;;;24.20;1.00;;;;;;5045310;28;20041;-66
2021/06/11 08:57:37;;;;;;;10.20;9.20;;;24.10;1.00;;;;;;5042856;28;20429;-66
2021/06/11 09:00:28;;;;;;;10.32;8.98;;;24.20;1.00;;;;;;5046389;28;20049;-67
2021/06/11 09:03:20;;;;;;;9.73;8.52;;;24.50;1.00;;;;;;5029923;28;20040;-66
2021/06/11 09:06:12;;;;;;;8.77;7.70;;;24.20;1.00;;;;;;5045077;28;20041;-65
2021/06/11 09:09:02;;;;;;;8.95;8.02;;;25.00;1.00;;;;;;5042413;28;20040;-66
2021/06/11 09:11:50;;;;;;;11.07;9.98;;;25.30;1.00;;;;;;5030349;28;20526;-66
2021/06/11 09:14:56;;;;;;;11.07;9.95;;;24.20;1.00;;;;;;5043661;28;20045;-65
2021/06/11 09:17:48;;;;;;;10.90;9.68;;;24.30;1.00;;;;;;5041555;28;20056;-66
2021/06/11 09:20:41;;;;;;;12.90;9.65;;;24.80;1.00;;;;;;5046089;28;20049;-66
2021/06/11 09:23:30;;;;;;;9.32;8.43;;;25.10;1.00;;;;;;5047031;28;20508;-67
2021/06/11 09:26:18;;;;;;;9.90;8.90;;;24.60;1.00;;;;;;5044663;28;20737;-67
2021/06/11 09:29:20;;;;;;;13.32;9.40;;;25.10;1.00;;;;;;5042044;28;20048;-67
2021/06/11 09:32:15;;;;;;;10.35;9.23;;;24.70;1.00;;;;;;5030865;28;20044;-67
2021/06/11 09:35:05;;;;;;;10.20;8.10;;;25.50;1.00;;;;;;5045843;28;20060;-66
2021/06/11 09:38:06;;;;;;;9.80;8.80;;;25.60;1.00;;;;;;5025204;28;20098;-67
2021/06/11 09:41:08;;;;;;;9.93;8.32;;;25.40;1.00;;;;;;5017158;28;20045;-66
2021/06/11 09:43:57;;;;;;;8.70;7.85;;;25.90;1.00;;;;;;5045468;28;20423;-66
2021/06/11 09:46:46;;;;;;;8.90;8.02;;;25.60;1.00;;;;;;5045135;28;20041;-66
2021/06/11 09:49:41;;;;;;;9.07;8.27;;;25.70;1.00;;;;;;5026767;28;20052;-67
2021/06/11 09:52:34;;;;;;;10.30;8.40;;;26.20;1.00;;;;;;5031647;28;20052;-66
2021/06/11 09:55:32;;;;;;;9.43;8.52;;;26.20;1.00;;;;;;5040652;28;20087;-66
2021/06/11 09:58:23;;;;;;;11.98;9.65;;;26.60;1.00;;;;;;5026983;28;20053;-66
2021/06/11 10:01:13;;;;;;;9.20;8.40;;;25.40;1.00;;;;;;5045878;28;20084;-65
2021/06/11 10:04:04;;;;;;;9.90;8.90;;;25.20;1.00;;;;;;5031333;28;20052;-66
2021/06/11 10:06:52;;;;;;;10.15;9.15;;;25.40;1.00;;;;;;5044550;28;20052;-66
2021/06/11 10:09:42;;;;;;;11.35;10.15;;;24.90;1.00;;;;;;5040307;28;20508;-67
2021/06/11 10:12:30;;;;;;;10.57;9.50;;;24.30;1.00;;;;;;5031939;28;20045;-66
2021/06/11 10:15:19;;;;;;;11.80;10.60;;;24.10;1.00;;;;;;5044202;28;20373;-66
2021/06/11 10:18:08;;;;;;;11.05;9.98;;;24.10;1.00;;;;;;5041051;28;20045;-66
2021/06/11 10:20:58;;;;;;;12.32;11.02;;;24.30;1.00;;;;;;5045322;28;20053;-66
2021/06/11 10:23:46;;;;;;;11.77;10.10;;;24.10;1.00;;;;;;5044120;28;20057;-66
2021/06/11 10:26:34;;;;;;;13.02;10.40;;;24.10;1.00;;;;;;5043554;28;20126;-67
2021/06/11 10:29:22;;;;;;;12.73;11.38;;;24.10;1.00;;;;;;5040330;28;20140;-66
2021/06/11 10:32:11;;;;;;;10.95;9.82;;;24.20;1.00;;;;;;5045877;28;20272;-65
2021/06/11 10:34:59;;;;;;;11.95;10.75;;;24.70;1.00;;;;;;5039511;28;20495;-66
2021/06/11 10:37:47;;;;;;;11.57;10.07;;;24.70;1.00;;;;;;5039266;28;20853;-66
2021/06/11 10:40:38;;;;;;;10.77;9.60;;;24.80;1.00;;;;;;5043673;28;20064;-67
2021/06/11 10:43:28;;;;;;;10.80;9.70;;;24.80;1.00;;;;;;5045150;28;20045;-65
2021/06/11 10:46:24;;;;;;;14.80;12.13;;;24.80;1.00;;;;;;5043419;28;20167;-66
2021/06/11 10:49:14;;;;;;;11.05;9.95;;;25.40;1.00;;;;;;5038993;28;20055;-67
2021/06/11 10:52:27;;;;;;;13.35;10.68;;;26.00;1.00;;;;;;5045237;28;20057;-67
2021/06/11 10:55:50;;;;;;;12.70;10.05;;;26.30;1.00;;;;;;5043695;28;20052;-66
2021/06/11 10:58:38;;;;;;;11.43;10.30;;;26.60;1.00;;;;;;5041401;28;20524;-66
2021/06/11 11:01:28;;;;;;;11.68;10.60;;;26.10;1.00;;;;;;5043948;28;20045;-65
2021/06/11 11:04:31;;;;;;;11.63;9.85;;;26.40;1.00;;;;;;5043654;28;20080;-67
2021/06/11 11:07:52;;;;;;;9.75;8.75;;;26.90;1.00;;;;;;5039425;28;20049;-66
2021/06/11 11:10:43;;;;;;;11.68;10.55;;;26.90;1.00;;;;;;5027360;28;20052;-63
2021/06/11 11:13:36;;;;;;;12.40;10.20;;;26.30;1.00;;;;;;5047138;28;20044;-63
2021/06/11 11:16:26;;;;;;;13.05;11.07;;;26.20;1.00;;;;;;5047615;28;20061;-62
2021/06/11 11:19:45;;;;;;;10.65;9.65;;;25.90;1.00;;;;;;5045318;28;20053;-63
2021/06/11 11:22:35;;;;;;;10.82;9.73;;;26.40;1.00;;;;;;5048054;28;20056;-64
2021/06/11 11:25:24;;;;;;;11.20;10.00;;;26.90;1.00;;;;;;5047699;28;20056;-64
2021/06/11 11:28:13;;;;;;;9.43;8.52;;;27.00;1.00;;;;;;5043425;28;20396;-62
2021/06/11 11:31:01;;;;;;;9.45;8.63;;;26.40;1.00;;;;;;5046146;28;20533;-63
2021/06/11 11:33:49;;;;;;;9.43;8.40;;;26.70;1.00;;;;;;5046054;28;20559;-63
2021/06/11 11:36:39;;;;;;;18.45;9.40;;;26.60;1.00;;;;;;5047459;28;20456;-66
2021/06/11 11:39:26;;;;;;;10.48;8.95;;;26.80;1.00;;;;;;5043977;28;20053;-66
2021/06/11 11:42:16;;;;;;;9.18;7.70;;;27.00;1.00;;;;;;5047317;28;20132;-66
2021/06/11 11:45:05;;;;;;;8.68;7.82;;;27.30;1.00;;;;;;5046578;28;20151;-66
2021/06/11 11:47:53;;;;;;;7.88;7.10;;;26.70;1.00;;;;;;5044424;28;20053;-67
2021/06/11 11:50:41;;;;;;;8.27;6.50;;;27.00;1.00;;;;;;5046086;28;20079;-65
2021/06/11 11:53:30;;;;;;;8.68;7.78;;;27.10;1.00;;;;;;5045825;28;20480;-66
2021/06/11 11:56:18;;;;;;;9.05;8.13;;;27.30;1.00;;;;;;5046957;28;20040;-66
2021/06/11 11:59:07;;;;;;;8.63;7.43;;;27.00;1.00;;;;;;5042904;28;20133;-66
2021/06/11 12:01:55;;;;;;;7.43;6.82;;;27.20;1.00;;;;;;5031383;28;20239;-66
2021/06/11 12:04:43;;;;;;;8.30;7.50;;;27.50;1.00;;;;;;5045131;28;20053;-65
2021/06/11 12:07:31;;;;;;;8.80;7.90;;;27.30;1.00;;;;;;5046312;28;20486;-66
2021/06/11 12:10:21;;;;;;;8.48;7.78;;;27.00;1.00;;;;;;5048490;28;20059;-66
2021/06/11 12:13:10;;;;;;;9.80;8.18;;;27.10;1.00;;;;;;5048428;28;20054;-66
2021/06/11 12:15:58;;;;;;;8.35;7.65;;;26.10;1.00;;;;;;5046292;28;20049;-66
2021/06/11 12:18:46;;;;;;;8.55;7.50;;;26.90;1.00;;;;;;5043435;28;20195;-66
2021/06/11 12:21:35;;;;;;;9.20;7.75;;;27.30;1.00;;;;;;5047941;28;20047;-67
2021/06/11 12:24:23;;;;;;;8.10;7.40;;;27.40;1.00;;;;;;5046482;28;20587;-66
2021/06/11 12:27:12;;;;;;;7.25;6.47;;;27.30;1.00;;;;;;5046851;28;20494;-65
2021/06/11 12:30:00;;;;;;;7.53;6.80;;;27.60;1.00;;;;;;5045521;28;20861;-66
2021/06/11 12:32:49;;;;;;;9.15;7.18;;;27.50;1.00;;;;;;5045783;28;20499;-65
2021/06/11 12:35:37;;;;;;;10.05;7.22;;;27.50;1.00;;;;;;5045698;28;20072;-66
2021/06/11 12:38:25;;;;;;;6.90;6.30;;;27.60;1.00;;;;;;5042768;28;20404;-66
2021/06/11 12:41:15;;;;;;;8.07;6.40;;;27.60;1.00;;;;;;5046377;28;20080;-67
2021/06/11 12:44:15;;;;;;;8.82;6.47;;;27.50;1.00;;;;;;5046277;28;20602;-65
2021/06/11 12:47:04;;;;;;;6.75;6.15;;;27.50;1.00;;;;;;5045542;28;20053;-66
2021/06/11 12:49:52;;;;;;;7.30;6.55;;;28.20;1.00;;;;;;5044092;28;20477;-66
2021/06/11 12:52:39;;;;;;;8.63;7.43;;;27.70;1.00;;;;;;5046118;28;20130;-67
2021/06/11 12:55:27;;;;;;;9.88;6.85;;;27.40;1.00;;;;;;5043321;28;20048;-66
2021/06/11 12:58:15;;;;;;;7.20;6.60;;;27.30;1.00;;;;;;5041422;28;20518;-65
2021/06/11 13:01:04;;;;;;;8.55;6.78;;;27.50;1.00;;;;;;5044302;28;20045;-66
2021/06/11 13:03:52;;;;;;;7.63;6.93;;;27.30;1.00;;;;;;5042353;28;20053;-66
2021/06/11 13:06:41;;;;;;;7.65;6.95;;;27.40;1.00;;;;;;5043772;28;20128;-67
2021/06/11 13:09:30;;;;;;;7.32;6.68;;;27.70;1.00;;;;;;5040732;28;20120;-66
2021/06/11 13:12:18;;;;;;;6.88;6.28;;;28.00;1.00;;;;;;5045300;28;20041;-66
2021/06/11 13:15:07;;;;;;;6.90;6.38;;;28.30;1.00;;;;;;5042561;28;20511;-66
2021/06/11 13:17:56;;;;;;;6.88;6.28;;;28.10;1.00;;;;;;5040374;28;20056;-67
2021/06/11 13:20:45;;;;;;;7.28;6.65;;;28.30;1.00;;;;;;5045361;28;20137;-67
2021/06/11 13:23:33;;;;;;;7.63;6.70;;;28.40;1.00;;;;;;5043513;28;20103;-67
2021/06/11 13:26:21;;;;;;;7.03;6.32;;;28.50;1.00;;;;;;5042238;28;20059;-67
2021/06/11 13:29:10;;;;;;;8.40;7.13;;;28.40;1.00;;;;;;5040391;28;20041;-67
2021/06/11 13:31:58;;;;;;;7.82;7.03;;;28.60;1.00;;;;;;5046254;28;20655;-67
2021/06/11 13:34:49;;;;;;;6.68;6.05;;;28.30;1.00;;;;;;5042726;28;20167;-66
2021/06/11 13:37:37;;;;;;;7.18;6.47;;;27.90;1.00;;;;;;5042032;28;20469;-67
2021/06/11 13:40:25;;;;;;;7.47;6.63;;;28.00;1.00;;;;;;5043544;28;20135;-66
2021/06/11 13:43:13;;;;;;;8.52;7.72;;;28.00;1.00;;;;;;5045814;28;20504;-66
2021/06/11 13:46:01;;;;;;;7.28;6.65;;;27.70;1.00;;;;;;5043869;28;20072;-67
2021/06/11 13:48:49;;;;;;;6.88;6.30;;;28.00;1.00;;;;;;5040286;28;20530;-67
2021/06/11 13:51:38;;;;;;;7.47;6.70;;;27.00;1.00;;;;;;5045995;28;20045;-68
2021/06/11 13:54:26;;;;;;;6.55;5.80;;;27.60;1.00;;;;;;5042532;28;20044;-66
2021/06/11 13:57:17;;;;;;;7.30;6.70;;;28.00;1.00;;;;;;5044776;28;20048;-67
2021/06/11 14:00:08;;;;;;;7.03;6.15;;;27.40;1.00;;;;;;5043081;28;20049;-65
2021/06/11 14:03:04;;;;;;;8.27;7.45;;;27.50;1.00;;;;;;5045387;28;20070;-66
2021/06/11 14:05:52;;;;;;;8.68;7.85;;;27.20;1.00;;;;;;5042848;28;20101;-67
2021/06/11 14:08:43;;;;;;;7.53;6.82;;;27.70;1.00;;;;;;5039284;28;20101;-67
2021/06/11 14:11:32;;;;;;;8.10;6.85;;;27.40;1.00;;;;;;5044621;28;20087;-67
2021/06/11 14:14:19;;;;;;;7.60;7.00;;;27.50;1.00;;;;;;5043647;28;20190;-68
2021/06/11 14:17:07;;;;;;;7.80;7.10;;;28.10;1.00;;;;;;5042995;28;20124;-66
2021/06/11 14:19:55;;;;;;;7.60;6.90;;;27.50;1.00;;;;;;5043274;28;20053;-66
2021/06/11 14:22:43;;;;;;;7.70;6.72;;;27.10;1.00;;;;;;5049983;28;20055;-67
2021/06/11 14:25:32;;;;;;;7.53;6.72;;;27.80;1.00;;;;;;5043904;28;20144;-65
2021/06/11 14:28:20;;;;;;;7.82;6.10;;;28.20;1.00;;;;;;5039183;28;20063;-67
2021/06/11 14:31:08;;;;;;;15.02;6.53;;;27.80;1.00;;;;;;5028428;28;20190;-67
2021/06/11 14:33:56;;;;;;;11.40;7.03;;;28.40;1.00;;;;;;5042138;28;20092;-67
2021/06/11 14:36:44;;;;;;;7.57;6.57;;;28.30;1.00;;;;;;5044387;28;20045;-66